AirNav   Everest Fuels
 
 758 users online  

I58 Crooked Lake Seaplane Base
Angola, Indiana, USA

GOING TO ANGOLA?


FAA INFORMATION EFFECTIVE 01 DECEMBER 2022

Location

FAA Identifier: I58
Lat/Long: 41-40-20.7000N 085-02-29.0000W
41-40.345000N 085-02.483333W
41.6724167,-85.0413889
(estimated)
Elevation: 989 ft. / 301 m (estimated)
Variation: 04W (1995)
From city: 3 miles NW of ANGOLA, IN
Time zone: UTC -5 (UTC -4 during Daylight Saving Time)
Zip code: 46703

Seaplane Base Operations

Seaplane Base use: Open to the public
Activation date: 08/1999
Control tower: no
ARTCC: CHICAGO CENTER
FSS: LANSING FLIGHT SERVICE STATION
NOTAMs facility: LAN (NOTAM-D service available)
Attendance: UNATNDD
Segmented circle: no

Seaplane Base Communications

CTAF: 122.9
WX AWOS-3 at ANQ (2.7 nm SW): 118.175 (260-668-5630)
WX AWOS-3P at C62 (16 nm SW): 119.925 (260-347-2967)
WX AWOS-3 at OEB (16 nm N): 118.125 (517-279-1810)
WX AWOS-3 at IRS (20 nm NW): 121.325 (269-659-8715)

Nearby radio navigation aids

VOR radial/distance  VOR name  Freq  Var
LFDr213/26.5LITCHFIELD VOR/DME111.2005W
OLKr042/(32.7)WEBSTER LAKE VOR110.4003W

 
NDB name  Hdg/Dist  Freq  Var  ID
STURGIS120/19.538204WIRS .. .-. ...

Seaplane Base Services

Runway Information

Runway 5W/23W

Dimensions: 3300 x 1000 ft. / 1006 x 305 m
Surface: water
RUNWAY 5W  RUNWAY 23W
Traffic pattern: leftleft

Seaplane Base Ownership and Management from official FAA records

Ownership: Privately-owned
Owner: INDIANA DEPT OF NATURAL RESOURCES
402 W. WASHINGTON ST., RM W255D
INDIANAPOLIS, IN 46204
Phone (317) 232-0935
Manager: LT. KENTON TURNER
402 W WASHINGTON ST., RM W255D
INDIANAPOLIS, IN 46204
Phone (317) 232-0935
BOATING LAW ADMINISTRATOR

Additional Remarks

SEAPLANE OPS PROHIBITED BTN SS-SR. EXPECT HEAVY BOAT TRAFFIC BETWEEN MEMORIAL DAY AND LABOR DAY. DO NOT BLOCK BOAT RAMPS, SEAPLANE DOCKING AREAS LIMITED.
FOR CD CTC GREAT LAKES APCH AT 269-459-3344, WHEN APCH CLSD CTC CHICAGO ARTCC AT 630-906-8921.

Instrument Procedures

There are no published instrument procedures at I58.

Some nearby airports with instrument procedures:

KANQ - Tri-State Steuben County Airport (3 nm SW)
C62 - Kendallville Municipal Airport (16 nm SW)
KOEB - Branch County Memorial Airport (16 nm N)
KIRS - Kirsch Municipal Airport (20 nm NW)
KGWB - De Kalb County Airport (22 nm S)
 
Loc | Ops | Rwys | IFR | FBO | Links
Com | Nav | Svcs | Stats | Notes
Area around I58 (Crooked Lake Seaplane Base)
 
Road maps at: MapQuest Bing Google
 
Aerial photo
WARNING: Photo may not be current or correct
Aerial photo of I58 (Crooked Lake Seaplane Base)
Photo by Mark Hansbarger, Angola, IN
Photo taken 31-Aug-2006
looking East.

Do you have a better or more recent aerial photo of Crooked Lake Seaplane Base that you would like to share? If so, please send us your photo.

 
Sectional chart

 
Airport distance calculator
Flying to Crooked Lake Seaplane Base? Find the distance to fly.

From to I58

Sunrise and sunset
Times for 04-Dec-2022
 Local
(UTC-5)
 Zulu
(UTC)
Morning civil twilight07:2112:21
Sunrise07:5212:52
Sunset17:0922:09
Evening civil twilight17:4022:40

Current date and time
Zulu (UTC)  04-Dec-2022 14:16:34
Local (UTC-5)  04-Dec-2022 09:16:34
 
METAR
KANQ 
3nm SW 
041355Z AUTO 22007KT 10SM CLR M07/M11 A3024 RMK AO2
KOEB 
15nm N 
041355Z AUTO 21006KT 10SM CLR M06/M11 A3022 RMK AO2 T10651107
KC62 
16nm SW 
041335Z AUTO 22005KT 10SM CLR M08/M10 A3026 RMK AO2 T10841105
KIRS 
19nm NW 
041355Z AUTO 22009KT 10SM CLR M07/M10 A3023 RMK AO2 T10731100
TAF
KBTL 
40nm N 
041140Z 0412/0512 22010KT P6SM SKC
KAZO 
41nm NW 
041140Z 0412/0512 22010KT P6SM SKC
KFWA 
43nm S 
041120Z 0412/0512 24009KT P6SM FEW250
KJXN 
44nm NE 
041140Z 0412/0512 21008KT P6SM SKC FM041500 24010G17KT P6SM SKC FM050000 21008KT P6SM SKC
NOTAMs
Click for the latest NOTAMs
NOTAMs are issued by the DoD/FAA and will open in a separate window not controlled by AirNav.

 

 
 

Would you like to see your business listed on this page?

 If your business provides an interesting product or service to pilots, flight crews, aircraft, or users of the Crooked Lake Seaplane Base, you should consider listing it here.  To start the listing process, click on the button below
 
Add a business
 

Other Pages about Crooked Lake Seaplane Base

Update a link
 
Copyright © AirNav, LLC. All rights reserved. Privacy Policy  Contact